• Join FlightAware (Why Join?)
  • Login
  • US Flag 
04:55PM EST


 

Airport Tracker/Info


-or-


 

Live Flight TrackerFlight Track Log ✈ DAL1082 ✈ 12-Aug-2012 ✈ KATL - KDTW

Flight Track Log - Related Links

Times and Time Zones

All times are in EDT time to prevent confusion due to time zone crossing. See the DAL1082 flight status page for this flight to view local times or setup timezone preferences in your user account.

Time Position Orientation Groundspeed Altitude Reporting Facility
EDT Latitude Longitude Course Direction KTS MPH feet Rate Location/Type
12:36PM 33.6500 -84.4667 301° West 165 190 2,700  Level Atlanta TRACON
12:37PM 33.6833 -84.5333 343° North 237 273 4,000 2,220 Climbing Atlanta TRACON
12:39PM 33.8078 -84.5789 25° Northeast 294 338 9,400 2,160 Climbing Atlanta Center
12:40PM 33.8683 -84.5442 28° Northeast 289 333 10,800 1,440 Climbing Atlanta Center
12:41PM 33.9708 -84.4797 28° Northeast 336 387 12,300 1,800 Climbing Atlanta Center
12:42PM 34.0650 -84.4200 27° Northeast 361 415 14,500 1,980 Climbing Atlanta Center
12:43PM 34.1592 -84.3625 27° Northeast 380 437 16,300 1,740 Climbing Atlanta Center
12:44PM 34.2678 -84.2953 15° North 392 451 18,000 1,620 Climbing Atlanta Center
12:45PM 34.3764 -84.2603 10° North 397 457 19,600 1,500 Climbing Atlanta Center
12:46PM 34.4911 -84.2353 11° North 403 464 21,000 1,440 Climbing Atlanta Center
12:47PM 34.6061 -84.2078 10° North 414 476 22,600 1,440 Climbing Atlanta Center
12:48PM 34.7186 -84.1828 11° North 414 476 23,900 1,260 Climbing Atlanta Center
12:49PM 34.8378 -84.1553 12° North 420 483 25,100 1,080 Climbing Atlanta Center
12:50PM 34.9589 -84.1250 11° North 431 496 26,100 900 Climbing Atlanta Center
12:51PM 35.0819 -84.0947 10° North 436 502 27,000 900 Climbing Atlanta Center
12:52PM 35.2072 -84.0667 11° North 441 507 27,900 900 Climbing Atlanta Center
12:53PM 35.3344 -84.0361 12° North 457 526 28,800 1,020 Climbing Atlanta Center
12:54PM 35.4594 -84.0031 11° North 457 526 30,000 1,200 Climbing Atlanta Center
12:55PM 35.5847 -83.9725 11° North 457 526 31,200 1,260 Climbing Atlanta Center
12:56PM 35.7058 -83.9442 12° North 446 513 32,600 1,200 Climbing Atlanta Center
12:57PM 35.8247 -83.9133 17° North 446 513 33,600 840 Climbing Atlanta Center
12:58PM 35.9433 -83.8694 26° Northeast 440 506 34,400 660 Climbing Atlanta Center
12:59PM 36.0517 -83.8050 27° Northeast 435 501 35,000 240 Climbing Atlanta Center
01:01PM 36.1831 -83.7222 27° Northeast 435 501 35,000  Level Atlanta Center
01:02PM 36.2872 -83.6550 28° Northeast 430 495 35,000  Level Atlanta Center
01:03PM 36.3975 -83.5822 26° Northeast 430 495 35,000  Level Atlanta Center
01:03PM 36.4389 -83.5569 26° Northeast 429 494 35,000  Level Indianapolis Center
01:04PM 36.5431 -83.4925 27° Northeast 453 521 35,000  Level Indianapolis Center
01:05PM 36.6514 -83.4225 27° Northeast 432 497 35,000  Level Indianapolis Center
01:06PM 36.7578 -83.3547 27° Northeast 426 490 35,000  Level Indianapolis Center
01:07PM 36.8681 -83.2844 27° Northeast 426 490 35,000  Level Indianapolis Center
01:08PM 36.9744 -83.2164 27° Northeast 426 490 35,000  Level Indianapolis Center
01:09PM 37.0786 -83.1508 28° Northeast 426 490 35,000  Level Indianapolis Center
01:10PM 37.1722 -83.0878 27° Northeast 426 490 35,000  Level Indianapolis Center
01:11PM 37.2783 -83.0194 27° Northeast 421 484 35,000  Level Indianapolis Center
01:12PM 37.3800 -82.9533 28° Northeast 416 479 35,000  Level Indianapolis Center
01:13PM 37.4842 -82.8844 29° Northeast 411 473 35,000  Level Indianapolis Center
01:14PM 37.5839 -82.8153 27° Northeast 411 473 35,000  Level Indianapolis Center
01:15PM 37.6875 -82.7486 28° Northeast 411 473 35,000  Level Indianapolis Center
01:16PM 37.7894 -82.6792 28° Northeast 416 479 35,000  Level Indianapolis Center
01:17PM 37.8889 -82.6122 28° Northeast 408 470 35,000  Level Indianapolis Center
01:18PM 37.9822 -82.5506 28° Northeast 408 470 35,000  Level Indianapolis Center
01:19PM 38.0964 -82.4750 28° Northeast 408 470 35,000  Level Indianapolis Center
01:20PM 38.2061 -82.3994 27° Northeast 408 470 35,000  Level Indianapolis Center
01:21PM 38.3078 -82.3342 29° Northeast 408 470 35,000  Level Indianapolis Center
01:22PM 38.4111 -82.2608 20° North 408 470 35,000  Level Indianapolis Center
01:23PM 38.5150 -82.2114 17° North 402 463 35,000  Level Indianapolis Center
01:24PM 38.6250 -82.1694 17° North 397 457 35,000  Level Indianapolis Center
01:25PM 38.7331 -82.1275 North 397 457 35,000  Level Indianapolis Center
01:26PM 38.8456 -82.1225 355° North 397 457 35,000  Level Indianapolis Center
01:27PM 38.9603 -82.1364 356° North 397 457 35,000  Level Indianapolis Center
01:28PM 39.0753 -82.1472 355° North 407 468 35,000  Level Indianapolis Center
01:29PM 39.1753 -82.1589 356° North 407 468 35,000  Level Indianapolis Center
01:30PM 39.2881 -82.1700 356° North 407 468 35,000  Level Indianapolis Center
01:31PM 39.4031 -82.1811 355° North 407 468 35,000 -360 Level Indianapolis Center
01:32PM 39.5242 -82.1950 355° North 402 463 34,300 -900 Descending Indianapolis Center
01:33PM 39.6367 -82.2089 356° North 413 475 33,300 -720 Descending Indianapolis Center
01:34PM 39.7536 -82.2203 355° North 408 470 32,900 -240 Descending Indianapolis Center
01:35PM 39.8706 -82.2342 355° North 413 475 32,900 -60 Level Indianapolis Center
01:36PM 39.9875 -82.2483 355° North 413 475 32,800 -660 Descending Indianapolis Center
01:39PM 40.4067 -82.2956 353° North 453 521 30,000 -660 Descending Cleveland Center
01:40PM 40.5250 -82.3150 347° North 447 514 30,000  Level Cleveland Center
01:41PM 40.6433 -82.3508 349° North 428 493 30,000 -840 Level Cleveland Center
01:42PM 40.7597 -82.3814 347° North 428 493 28,400 -1,020 Descending Cleveland Center
01:43PM 40.8758 -82.4175 346° North 428 493 28,000 -240 Descending Cleveland Center
01:44PM 40.9794 -82.4506 348° North 428 493 28,000 -240 Level Cleveland Center
01:45PM 41.0956 -82.4842 348° North 428 493 27,600 -720 Descending Cleveland Center
01:46PM 41.2036 -82.5150 333° Northwest 417 480 26,600 -1,380 Descending Cleveland Center
01:47PM 41.3006 -82.5814 319° Northwest 388 447 24,900 -2,100 Descending Cleveland Center
01:48PM 41.3781 -82.6725 320° Northwest 382 440 22,500 -2,400 Descending Cleveland Center
01:49PM 41.4617 -82.7667 318° Northwest 370 426 20,200 -2,460 Descending Cleveland Center
01:50PM 41.4922 -82.8036 319° Northwest 362 417 19,100 -2,520 Descending Cleveland Center
01:50PM 41.5372 -82.8550 319° Northwest 356 410 17,700 -2,340 Descending Cleveland Center
01:51PM 41.6106 -82.9411 317° Northwest 362 417 15,400 -2,340 Descending Cleveland Center
01:52PM 41.6817 -83.0297 326° Northwest 354 407 13,100 -2,400 Descending Cleveland Center
01:53PM 41.7042 -83.0500 326° Northwest 351 404 12,400 -1,140 Descending Cleveland Center
01:53PM 41.7592 -83.0994 334° Northwest 349 402 12,000 -420 Descending Cleveland Center
01:54PM 41.7778 -83.1114 328° Northwest 320 368 12,000  Level Cleveland Center
01:54PM 41.8269 -83.1525 331° Northwest 310 357 12,000  Level Cleveland Center
01:55PM 41.8864 -83.1967 333° Northwest 256 295 12,000  Level Cleveland Center
01:56PM 41.9458 -83.2381 343° North 243 280 12,000  Level Cleveland Center
01:57PM 41.9686 -83.2475 358° North 242 278 12,000  Level Cleveland Center
01:57PM 42.0039 -83.2489 355° North 238 274 12,000  Level Cleveland Center
01:58PM 42.0478 -83.2536 358° North 246 283 12,000  Level Cleveland Center
01:58PM 42.0728 -83.2547 358° North 238 274 12,000  Level Cleveland Center
01:59PM 42.0997 -83.2558 North 246 283 12,000 -240 Level Cleveland Center
01:59PM 42.1436 -83.2492 25° Northeast 238 274 11,800 -780 Descending Cleveland Center
02:00PM 42.1817 -83.2256 26° Northeast 256 295 11,100 -960 Descending Cleveland Center
02:01PM 42.2325 -83.1914 27° Northeast 214 246 10,500 -1,440 Descending Cleveland Center
02:02PM 42.2897 -83.1514 23° Northeast 207 238 8,200 -1,980 Descending Cleveland Center
02:03PM 42.3300 -83.1278 North 202 232 6,700 -1,200 Descending Cleveland Center
02:04PM 42.3822 -83.1214 278° West 196 226 6,000 -840 Descending Cleveland Center
02:05PM 42.3889 -83.1892 225° Southwest 181 208 5,100 -960 Descending Cleveland Center
02:06PM 42.3544 -83.2356 209° Southwest 182 209 4,100 -1,140 Descending Cleveland Center
02:07PM 42.3078 -83.2703 212° Southwest 188 216 2,800 -1,200 Descending Cleveland Center
02:08PM 42.2697 -83.3022 206° Southwest 150 173 1,700 -900 Descending Cleveland Center
02:09PM 42.2336 -83.3258 206° Southwest 141 162 1,000 -720 Descending Cleveland Center